sensor_id;sensor_type;location;lat;lon;timestamp;P1;durP1;ratioP1;P2;durP2;ratioP2
20251;SDS011;10284;58.364;15.550;2024-03-02T00:01:50;82.55;;;27.08;;
20251;SDS011;10284;58.364;15.550;2024-03-02T00:04:15;69.47;;;26.13;;
20251;SDS011;10284;58.364;15.550;2024-03-02T00:06:42;65.68;;;25.27;;
20251;SDS011;10284;58.364;15.550;2024-03-02T00:09:08;68.63;;;26.63;;
20251;SDS011;10284;58.364;15.550;2024-03-02T00:11:34;69.57;;;25.45;;
20251;SDS011;10284;58.364;15.550;2024-03-02T00:14:01;80.72;;;26.88;;
20251;SDS011;10284;58.364;15.550;2024-03-02T00:16:29;68.40;;;25.27;;
20251;SDS011;10284;58.364;15.550;2024-03-02T00:18:55;68.72;;;25.55;;
20251;SDS011;10284;58.364;15.550;2024-03-02T00:21:24;69.82;;;26.27;;
20251;SDS011;10284;58.364;15.550;2024-03-02T00:23:52;79.60;;;25.92;;
20251;SDS011;10284;58.364;15.550;2024-03-02T00:26:18;77.43;;;26.52;;
20251;SDS011;10284;58.364;15.550;2024-03-02T00:28:44;63.78;;;24.65;;
20251;SDS011;10284;58.364;15.550;2024-03-02T00:31:13;68.53;;;25.02;;
20251;SDS011;10284;58.364;15.550;2024-03-02T00:33:43;64.70;;;23.52;;
20251;SDS011;10284;58.364;15.550;2024-03-02T00:36:10;65.18;;;24.88;;
20251;SDS011;10284;58.364;15.550;2024-03-02T00:38:48;64.60;;;24.63;;
20251;SDS011;10284;58.364;15.550;2024-03-02T00:41:16;68.00;;;25.38;;
20251;SDS011;10284;58.364;15.550;2024-03-02T00:46:38;59.00;;;23.27;;
20251;SDS011;10284;58.364;15.550;2024-03-02T00:49:05;58.75;;;24.50;;
20251;SDS011;10284;58.364;15.550;2024-03-02T00:51:36;59.67;;;23.50;;
20251;SDS011;10284;58.364;15.550;2024-03-02T00:54:03;55.13;;;23.13;;
20251;SDS011;10284;58.364;15.550;2024-03-02T00:56:29;54.50;;;23.65;;
20251;SDS011;10284;58.364;15.550;2024-03-02T00:58:55;53.67;;;22.40;;
20251;SDS011;10284;58.364;15.550;2024-03-02T01:01:21;49.30;;;23.02;;
20251;SDS011;10284;58.364;15.550;2024-03-02T01:03:46;50.92;;;22.35;;
20251;SDS011;10284;58.364;15.550;2024-03-02T01:06:12;49.50;;;22.17;;
20251;SDS011;10284;58.364;15.550;2024-03-02T01:08:38;52.20;;;22.23;;
20251;SDS011;10284;58.364;15.550;2024-03-02T01:11:03;53.28;;;22.08;;
20251;SDS011;10284;58.364;15.550;2024-03-02T01:13:30;49.42;;;22.65;;
20251;SDS011;10284;58.364;15.550;2024-03-02T01:15:55;52.22;;;23.10;;
20251;SDS011;10284;58.364;15.550;2024-03-02T01:18:21;45.65;;;22.23;;
20251;SDS011;10284;58.364;15.550;2024-03-02T01:20:47;55.13;;;22.80;;
20251;SDS011;10284;58.364;15.550;2024-03-02T01:23:12;56.35;;;22.67;;
20251;SDS011;10284;58.364;15.550;2024-03-02T01:25:38;61.80;;;23.50;;
20251;SDS011;10284;58.364;15.550;2024-03-02T01:28:04;61.60;;;22.63;;
20251;SDS011;10284;58.364;15.550;2024-03-02T01:30:29;66.47;;;22.42;;
20251;SDS011;10284;58.364;15.550;2024-03-02T01:32:55;61.83;;;23.77;;
20251;SDS011;10284;58.364;15.550;2024-03-02T01:35:20;77.93;;;24.75;;
20251;SDS011;10284;58.364;15.550;2024-03-02T01:37:45;76.13;;;23.55;;
20251;SDS011;10284;58.364;15.550;2024-03-02T01:40:11;63.80;;;22.23;;
20251;SDS011;10284;58.364;15.550;2024-03-02T01:42:37;63.47;;;22.80;;
20251;SDS011;10284;58.364;15.550;2024-03-02T01:45:06;73.97;;;21.88;;
20251;SDS011;10284;58.364;15.550;2024-03-02T01:47:32;84.25;;;24.58;;
20251;SDS011;10284;58.364;15.550;2024-03-02T01:49:58;68.68;;;22.55;;
20251;SDS011;10284;58.364;15.550;2024-03-02T01:52:24;67.72;;;22.67;;
20251;SDS011;10284;58.364;15.550;2024-03-02T01:54:49;75.95;;;22.27;;
20251;SDS011;10284;58.364;15.550;2024-03-02T01:57:15;57.17;;;21.55;;
20251;SDS011;10284;58.364;15.550;2024-03-02T01:59:40;61.30;;;20.80;;
20251;SDS011;10284;58.364;15.550;2024-03-02T02:02:06;83.78;;;20.92;;
20251;SDS011;10284;58.364;15.550;2024-03-02T02:04:31;75.45;;;20.73;;
20251;SDS011;10284;58.364;15.550;2024-03-02T02:06:57;77.57;;;20.33;;
20251;SDS011;10284;58.364;15.550;2024-03-02T02:09:23;83.68;;;20.92;;
20251;SDS011;10284;58.364;15.550;2024-03-02T02:11:50;71.80;;;20.48;;
20251;SDS011;10284;58.364;15.550;2024-03-02T02:14:15;71.03;;;20.55;;
20251;SDS011;10284;58.364;15.550;2024-03-02T02:16:41;76.70;;;20.65;;
20251;SDS011;10284;58.364;15.550;2024-03-02T02:19:07;146.50;;;21.92;;
20251;SDS011;10284;58.364;15.550;2024-03-02T02:21:32;130.55;;;24.45;;
20251;SDS011;10284;58.364;15.550;2024-03-02T02:23:58;49.38;;;19.88;;
20251;SDS011;10284;58.364;15.550;2024-03-02T02:26:24;131.77;;;22.17;;
20251;SDS011;10284;58.364;15.550;2024-03-02T02:28:49;86.18;;;20.25;;
20251;SDS011;10284;58.364;15.550;2024-03-02T02:31:15;129.30;;;20.60;;
20251;SDS011;10284;58.364;15.550;2024-03-02T02:33:41;119.97;;;21.67;;
20251;SDS011;10284;58.364;15.550;2024-03-02T02:36:07;104.97;;;21.63;;
20251;SDS011;10284;58.364;15.550;2024-03-02T02:38:32;116.38;;;22.08;;
20251;SDS011;10284;58.364;15.550;2024-03-02T02:41:02;66.45;;;20.80;;
20251;SDS011;10284;58.364;15.550;2024-03-02T02:43:27;95.18;;;21.77;;
20251;SDS011;10284;58.364;15.550;2024-03-02T02:45:52;67.53;;;19.73;;
20251;SDS011;10284;58.364;15.550;2024-03-02T02:48:18;103.47;;;21.60;;
20251;SDS011;10284;58.364;15.550;2024-03-02T02:50:43;110.75;;;20.92;;
20251;SDS011;10284;58.364;15.550;2024-03-02T02:53:08;104.47;;;22.58;;
20251;SDS011;10284;58.364;15.550;2024-03-02T02:55:35;114.05;;;19.05;;
20251;SDS011;10284;58.364;15.550;2024-03-02T02:58:05;113.47;;;21.85;;
20251;SDS011;10284;58.364;15.550;2024-03-02T03:00:31;111.55;;;21.35;;
20251;SDS011;10284;58.364;15.550;2024-03-02T03:02:56;121.57;;;21.92;;
20251;SDS011;10284;58.364;15.550;2024-03-02T03:05:22;109.60;;;21.70;;
20251;SDS011;10284;58.364;15.550;2024-03-02T03:07:47;72.32;;;20.77;;
20251;SDS011;10284;58.364;15.550;2024-03-02T03:10:15;111.30;;;23.02;;
20251;SDS011;10284;58.364;15.550;2024-03-02T03:12:40;98.57;;;21.90;;
20251;SDS011;10284;58.364;15.550;2024-03-02T03:15:07;104.28;;;22.45;;
20251;SDS011;10284;58.364;15.550;2024-03-02T03:17:34;115.32;;;22.60;;
20251;SDS011;10284;58.364;15.550;2024-03-02T03:20:00;100.93;;;21.90;;
20251;SDS011;10284;58.364;15.550;2024-03-02T03:22:26;102.38;;;22.48;;
20251;SDS011;10284;58.364;15.550;2024-03-02T03:24:52;134.68;;;24.50;;
20251;SDS011;10284;58.364;15.550;2024-03-02T03:27:17;105.60;;;21.20;;
20251;SDS011;10284;58.364;15.550;2024-03-02T03:29:43;101.90;;;22.45;;
20251;SDS011;10284;58.364;15.550;2024-03-02T03:32:08;118.18;;;22.70;;
20251;SDS011;10284;58.364;15.550;2024-03-02T03:34:34;139.52;;;23.67;;
20251;SDS011;10284;58.364;15.550;2024-03-02T03:36:59;131.18;;;23.77;;
20251;SDS011;10284;58.364;15.550;2024-03-02T03:39:25;118.35;;;21.73;;
20251;SDS011;10284;58.364;15.550;2024-03-02T03:41:50;124.22;;;23.67;;
20251;SDS011;10284;58.364;15.550;2024-03-02T03:44:16;110.88;;;23.30;;
20251;SDS011;10284;58.364;15.550;2024-03-02T03:46:41;101.50;;;22.58;;
20251;SDS011;10284;58.364;15.550;2024-03-02T03:49:06;117.72;;;25.30;;
20251;SDS011;10284;58.364;15.550;2024-03-02T03:51:33;111.63;;;23.20;;
20251;SDS011;10284;58.364;15.550;2024-03-02T03:53:58;104.68;;;22.27;;
20251;SDS011;10284;58.364;15.550;2024-03-02T03:56:24;100.68;;;23.58;;
20251;SDS011;10284;58.364;15.550;2024-03-02T03:58:49;99.93;;;23.90;;
20251;SDS011;10284;58.364;15.550;2024-03-02T04:01:14;115.68;;;25.63;;
20251;SDS011;10284;58.364;15.550;2024-03-02T04:03:40;140.27;;;26.27;;
20251;SDS011;10284;58.364;15.550;2024-03-02T04:06:05;99.82;;;25.05;;
20251;SDS011;10284;58.364;15.550;2024-03-02T04:08:31;95.70;;;25.67;;
20251;SDS011;10284;58.364;15.550;2024-03-02T04:10:56;122.03;;;26.02;;
20251;SDS011;10284;58.364;15.550;2024-03-02T04:13:21;113.00;;;27.13;;
20251;SDS011;10284;58.364;15.550;2024-03-02T04:15:47;104.68;;;24.80;;
20251;SDS011;10284;58.364;15.550;2024-03-02T04:18:12;106.72;;;25.35;;
20251;SDS011;10284;58.364;15.550;2024-03-02T04:20:38;81.32;;;25.10;;
20251;SDS011;10284;58.364;15.550;2024-03-02T04:23:03;95.93;;;24.65;;
20251;SDS011;10284;58.364;15.550;2024-03-02T04:25:29;80.22;;;23.20;;
20251;SDS011;10284;58.364;15.550;2024-03-02T04:27:54;84.63;;;24.40;;
20251;SDS011;10284;58.364;15.550;2024-03-02T04:30:20;89.30;;;26.70;;
20251;SDS011;10284;58.364;15.550;2024-03-02T04:32:45;80.18;;;24.77;;
20251;SDS011;10284;58.364;15.550;2024-03-02T04:35:12;80.63;;;25.58;;
20251;SDS011;10284;58.364;15.550;2024-03-02T04:37:40;86.85;;;23.98;;
20251;SDS011;10284;58.364;15.550;2024-03-02T04:40:05;85.35;;;25.00;;
20251;SDS011;10284;58.364;15.550;2024-03-02T04:42:34;88.22;;;25.60;;
20251;SDS011;10284;58.364;15.550;2024-03-02T04:45:00;90.40;;;24.13;;
20251;SDS011;10284;58.364;15.550;2024-03-02T04:47:26;87.63;;;26.20;;
20251;SDS011;10284;58.364;15.550;2024-03-02T04:49:51;82.32;;;24.40;;
20251;SDS011;10284;58.364;15.550;2024-03-02T04:52:16;73.95;;;23.60;;
20251;SDS011;10284;58.364;15.550;2024-03-02T04:54:42;89.75;;;23.60;;
20251;SDS011;10284;58.364;15.550;2024-03-02T04:57:26;79.18;;;23.02;;
20251;SDS011;10284;58.364;15.550;2024-03-02T04:59:52;79.80;;;23.65;;
20251;SDS011;10284;58.364;15.550;2024-03-02T05:02:17;83.78;;;23.98;;
20251;SDS011;10284;58.364;15.550;2024-03-02T05:04:42;75.85;;;23.30;;
20251;SDS011;10284;58.364;15.550;2024-03-02T05:07:08;77.22;;;24.90;;
20251;SDS011;10284;58.364;15.550;2024-03-02T05:09:33;89.13;;;24.83;;
20251;SDS011;10284;58.364;15.550;2024-03-02T05:11:58;82.35;;;25.08;;
20251;SDS011;10284;58.364;15.550;2024-03-02T05:14:40;94.53;;;24.27;;
20251;SDS011;10284;58.364;15.550;2024-03-02T05:17:06;98.53;;;25.00;;
20251;SDS011;10284;58.364;15.550;2024-03-02T05:19:31;93.07;;;25.27;;
20251;SDS011;10284;58.364;15.550;2024-03-02T05:21:56;82.00;;;25.02;;
20251;SDS011;10284;58.364;15.550;2024-03-02T05:24:22;94.03;;;24.92;;
20251;SDS011;10284;58.364;15.550;2024-03-02T05:26:47;90.97;;;25.13;;
20251;SDS011;10284;58.364;15.550;2024-03-02T05:29:12;103.05;;;25.88;;
20251;SDS011;10284;58.364;15.550;2024-03-02T05:31:38;75.85;;;24.48;;
20251;SDS011;10284;58.364;15.550;2024-03-02T05:34:03;98.75;;;24.38;;
20251;SDS011;10284;58.364;15.550;2024-03-02T05:36:30;97.03;;;25.63;;
20251;SDS011;10284;58.364;15.550;2024-03-02T05:38:56;86.70;;;24.08;;
20251;SDS011;10284;58.364;15.550;2024-03-02T05:41:22;89.47;;;24.77;;
20251;SDS011;10284;58.364;15.550;2024-03-02T05:43:47;91.13;;;25.73;;
20251;SDS011;10284;58.364;15.550;2024-03-02T05:46:13;93.68;;;25.75;;
20251;SDS011;10284;58.364;15.550;2024-03-02T05:48:38;76.65;;;24.00;;
20251;SDS011;10284;58.364;15.550;2024-03-02T05:51:03;87.00;;;24.42;;
20251;SDS011;10284;58.364;15.550;2024-03-02T05:53:29;73.47;;;25.23;;
20251;SDS011;10284;58.364;15.550;2024-03-02T05:55:54;99.90;;;24.98;;
20251;SDS011;10284;58.364;15.550;2024-03-02T05:58:21;89.93;;;25.75;;
20251;SDS011;10284;58.364;15.550;2024-03-02T06:00:49;77.10;;;24.08;;
20251;SDS011;10284;58.364;15.550;2024-03-02T06:03:14;85.25;;;22.92;;
20251;SDS011;10284;58.364;15.550;2024-03-02T06:05:40;75.18;;;24.38;;
20251;SDS011;10284;58.364;15.550;2024-03-02T06:08:06;77.18;;;23.52;;
20251;SDS011;10284;58.364;15.550;2024-03-02T06:10:32;74.93;;;23.48;;
20251;SDS011;10284;58.364;15.550;2024-03-02T06:12:57;80.30;;;24.05;;
20251;SDS011;10284;58.364;15.550;2024-03-02T06:15:24;67.45;;;24.65;;
20251;SDS011;10284;58.364;15.550;2024-03-02T06:17:49;67.10;;;23.58;;
20251;SDS011;10284;58.364;15.550;2024-03-02T06:20:15;70.88;;;24.20;;
20251;SDS011;10284;58.364;15.550;2024-03-02T06:22:40;61.80;;;22.77;;
20251;SDS011;10284;58.364;15.550;2024-03-02T06:25:06;65.55;;;23.42;;
20251;SDS011;10284;58.364;15.550;2024-03-02T06:27:31;65.38;;;24.17;;
20251;SDS011;10284;58.364;15.550;2024-03-02T06:29:57;75.15;;;24.92;;
20251;SDS011;10284;58.364;15.550;2024-03-02T06:32:22;69.97;;;24.05;;
20251;SDS011;10284;58.364;15.550;2024-03-02T06:34:50;69.53;;;24.10;;
20251;SDS011;10284;58.364;15.550;2024-03-02T06:37:15;78.43;;;25.92;;
20251;SDS011;10284;58.364;15.550;2024-03-02T06:39:41;74.57;;;25.05;;
20251;SDS011;10284;58.364;15.550;2024-03-02T06:42:06;70.82;;;24.75;;
20251;SDS011;10284;58.364;15.550;2024-03-02T06:44:32;80.47;;;25.98;;
20251;SDS011;10284;58.364;15.550;2024-03-02T06:46:57;73.25;;;24.27;;
20251;SDS011;10284;58.364;15.550;2024-03-02T06:49:22;80.88;;;26.25;;
20251;SDS011;10284;58.364;15.550;2024-03-02T06:51:48;70.50;;;24.42;;
20251;SDS011;10284;58.364;15.550;2024-03-02T06:54:13;79.82;;;25.15;;
20251;SDS011;10284;58.364;15.550;2024-03-02T06:56:38;82.15;;;26.98;;
20251;SDS011;10284;58.364;15.550;2024-03-02T06:59:04;78.72;;;26.10;;
20251;SDS011;10284;58.364;15.550;2024-03-02T07:01:29;73.35;;;26.67;;
20251;SDS011;10284;58.364;15.550;2024-03-02T07:03:55;82.18;;;26.60;;
20251;SDS011;10284;58.364;15.550;2024-03-02T07:06:20;74.15;;;25.73;;
20251;SDS011;10284;58.364;15.550;2024-03-02T07:08:45;76.93;;;25.80;;
20251;SDS011;10284;58.364;15.550;2024-03-02T07:11:11;78.57;;;27.15;;
20251;SDS011;10284;58.364;15.550;2024-03-02T07:13:36;75.85;;;26.55;;
20251;SDS011;10284;58.364;15.550;2024-03-02T07:16:01;75.47;;;27.15;;
20251;SDS011;10284;58.364;15.550;2024-03-02T07:18:27;71.95;;;25.58;;
20251;SDS011;10284;58.364;15.550;2024-03-02T07:20:52;67.82;;;25.73;;
20251;SDS011;10284;58.364;15.550;2024-03-02T07:23:18;72.40;;;25.95;;
20251;SDS011;10284;58.364;15.550;2024-03-02T07:25:45;67.05;;;24.65;;
20251;SDS011;10284;58.364;15.550;2024-03-02T07:28:10;63.78;;;25.13;;
20251;SDS011;10284;58.364;15.550;2024-03-02T07:30:36;73.00;;;24.75;;
20251;SDS011;10284;58.364;15.550;2024-03-02T07:33:03;70.35;;;26.15;;
20251;SDS011;10284;58.364;15.550;2024-03-02T07:35:29;67.93;;;25.80;;
20251;SDS011;10284;58.364;15.550;2024-03-02T07:37:56;68.70;;;25.58;;
20251;SDS011;10284;58.364;15.550;2024-03-02T07:40:22;75.28;;;26.48;;
20251;SDS011;10284;58.364;15.550;2024-03-02T07:42:48;75.93;;;26.52;;
20251;SDS011;10284;58.364;15.550;2024-03-02T07:45:13;77.10;;;27.45;;
20251;SDS011;10284;58.364;15.550;2024-03-02T07:47:38;70.35;;;26.88;;
20251;SDS011;10284;58.364;15.550;2024-03-02T07:50:04;80.50;;;27.88;;
20251;SDS011;10284;58.364;15.550;2024-03-02T07:52:33;77.72;;;26.80;;
20251;SDS011;10284;58.364;15.550;2024-03-02T07:54:58;74.70;;;27.25;;
20251;SDS011;10284;58.364;15.550;2024-03-02T07:57:24;82.70;;;28.55;;
20251;SDS011;10284;58.364;15.550;2024-03-02T07:59:49;82.38;;;29.75;;
20251;SDS011;10284;58.364;15.550;2024-03-02T08:02:15;81.95;;;28.95;;
20251;SDS011;10284;58.364;15.550;2024-03-02T08:04:40;83.85;;;28.80;;
20251;SDS011;10284;58.364;15.550;2024-03-02T08:07:06;76.43;;;28.08;;
20251;SDS011;10284;58.364;15.550;2024-03-02T08:09:31;85.90;;;27.85;;
20251;SDS011;10284;58.364;15.550;2024-03-02T08:11:57;82.10;;;28.98;;
20251;SDS011;10284;58.364;15.550;2024-03-02T08:14:23;82.63;;;28.90;;
20251;SDS011;10284;58.364;15.550;2024-03-02T08:16:49;88.40;;;28.55;;
20251;SDS011;10284;58.364;15.550;2024-03-02T08:19:14;80.28;;;28.52;;
20251;SDS011;10284;58.364;15.550;2024-03-02T08:21:40;77.78;;;27.95;;
20251;SDS011;10284;58.364;15.550;2024-03-02T08:24:05;71.07;;;26.15;;
20251;SDS011;10284;58.364;15.550;2024-03-02T08:26:31;73.57;;;27.25;;
20251;SDS011;10284;58.364;15.550;2024-03-02T08:28:59;68.38;;;27.55;;
20251;SDS011;10284;58.364;15.550;2024-03-02T08:31:26;63.30;;;25.35;;
20251;SDS011;10284;58.364;15.550;2024-03-02T08:33:52;61.85;;;26.02;;
20251;SDS011;10284;58.364;15.550;2024-03-02T08:36:18;56.88;;;26.27;;
20251;SDS011;10284;58.364;15.550;2024-03-02T08:38:44;58.92;;;25.35;;
20251;SDS011;10284;58.364;15.550;2024-03-02T08:41:09;57.72;;;25.58;;
20251;SDS011;10284;58.364;15.550;2024-03-02T08:43:34;51.03;;;24.20;;
20251;SDS011;10284;58.364;15.550;2024-03-02T08:46:00;51.38;;;23.58;;
20251;SDS011;10284;58.364;15.550;2024-03-02T08:48:25;48.40;;;24.20;;
20251;SDS011;10284;58.364;15.550;2024-03-02T08:50:51;53.05;;;24.08;;
20251;SDS011;10284;58.364;15.550;2024-03-02T08:53:16;54.65;;;25.45;;
20251;SDS011;10284;58.364;15.550;2024-03-02T08:55:44;52.10;;;25.50;;
20251;SDS011;10284;58.364;15.550;2024-03-02T08:58:12;55.88;;;25.48;;
20251;SDS011;10284;58.364;15.550;2024-03-02T09:00:37;52.70;;;24.92;;
20251;SDS011;10284;58.364;15.550;2024-03-02T09:03:03;58.00;;;26.55;;
20251;SDS011;10284;58.364;15.550;2024-03-02T09:05:29;49.83;;;25.83;;
20251;SDS011;10284;58.364;15.550;2024-03-02T09:07:54;63.47;;;28.45;;
20251;SDS011;10284;58.364;15.550;2024-03-02T09:10:20;59.45;;;27.77;;
20251;SDS011;10284;58.364;15.550;2024-03-02T09:12:46;66.20;;;29.52;;
20251;SDS011;10284;58.364;15.550;2024-03-02T09:15:11;59.28;;;27.02;;
20251;SDS011;10284;58.364;15.550;2024-03-02T09:17:36;58.38;;;28.25;;
20251;SDS011;10284;58.364;15.550;2024-03-02T09:20:02;60.25;;;27.63;;
20251;SDS011;10284;58.364;15.550;2024-03-02T09:22:29;62.63;;;27.48;;
20251;SDS011;10284;58.364;15.550;2024-03-02T09:24:55;71.05;;;29.02;;
20251;SDS011;10284;58.364;15.550;2024-03-02T09:27:20;55.65;;;27.52;;
20251;SDS011;10284;58.364;15.550;2024-03-02T09:29:46;56.38;;;27.13;;
20251;SDS011;10284;58.364;15.550;2024-03-02T09:32:14;56.83;;;26.35;;
20251;SDS011;10284;58.364;15.550;2024-03-02T09:34:40;58.78;;;25.30;;
20251;SDS011;10284;58.364;15.550;2024-03-02T09:37:06;52.60;;;26.15;;
20251;SDS011;10284;58.364;15.550;2024-03-02T09:39:31;58.35;;;25.52;;
20251;SDS011;10284;58.364;15.550;2024-03-02T09:41:57;57.17;;;26.00;;
20251;SDS011;10284;58.364;15.550;2024-03-02T09:44:23;59.70;;;26.80;;
20251;SDS011;10284;58.364;15.550;2024-03-02T09:46:50;57.40;;;26.65;;
20251;SDS011;10284;58.364;15.550;2024-03-02T09:49:16;57.22;;;27.33;;
20251;SDS011;10284;58.364;15.550;2024-03-02T09:51:43;59.65;;;27.38;;
20251;SDS011;10284;58.364;15.550;2024-03-02T09:54:12;55.85;;;26.98;;
20251;SDS011;10284;58.364;15.550;2024-03-02T09:56:38;65.20;;;28.00;;
20251;SDS011;10284;58.364;15.550;2024-03-02T09:59:03;56.35;;;26.85;;
20251;SDS011;10284;58.364;15.550;2024-03-02T10:01:30;54.90;;;26.58;;
20251;SDS011;10284;58.364;15.550;2024-03-02T10:03:55;59.38;;;28.88;;
20251;SDS011;10284;58.364;15.550;2024-03-02T10:06:25;63.33;;;29.42;;
20251;SDS011;10284;58.364;15.550;2024-03-02T10:08:51;63.05;;;29.15;;
20251;SDS011;10284;58.364;15.550;2024-03-02T10:11:25;62.95;;;29.27;;
20251;SDS011;10284;58.364;15.550;2024-03-02T10:14:31;60.95;;;29.73;;
20251;SDS011;10284;58.364;15.550;2024-03-02T10:16:50;65.90;;;31.15;;
20251;SDS011;10284;58.364;15.550;2024-03-02T10:19:18;60.83;;;30.27;;
20251;SDS011;10284;58.364;15.550;2024-03-02T10:21:45;66.60;;;30.80;;
20251;SDS011;10284;58.364;15.550;2024-03-02T10:24:20;68.18;;;31.65;;
20251;SDS011;10284;58.364;15.550;2024-03-02T10:26:46;68.28;;;30.67;;
20251;SDS011;10284;58.364;15.550;2024-03-02T10:29:12;69.00;;;31.25;;
20251;SDS011;10284;58.364;15.550;2024-03-02T10:31:38;69.10;;;32.30;;
20251;SDS011;10284;58.364;15.550;2024-03-02T10:34:04;64.57;;;32.72;;
20251;SDS011;10284;58.364;15.550;2024-03-02T10:36:31;80.70;;;32.97;;
20251;SDS011;10284;58.364;15.550;2024-03-02T10:39:03;77.90;;;33.50;;
20251;SDS011;10284;58.364;15.550;2024-03-02T10:41:30;83.45;;;35.60;;
20251;SDS011;10284;58.364;15.550;2024-03-02T10:43:58;70.63;;;32.92;;
20251;SDS011;10284;58.364;15.550;2024-03-02T10:46:31;74.22;;;34.60;;
20251;SDS011;10284;58.364;15.550;2024-03-02T10:48:58;80.03;;;35.60;;
20251;SDS011;10284;58.364;15.550;2024-03-02T10:51:27;86.80;;;35.10;;
20251;SDS011;10284;58.364;15.550;2024-03-02T10:53:55;79.03;;;34.50;;
20251;SDS011;10284;58.364;15.550;2024-03-02T10:56:30;80.05;;;34.90;;
20251;SDS011;10284;58.364;15.550;2024-03-02T11:01:29;82.45;;;35.35;;
20251;SDS011;10284;58.364;15.550;2024-03-02T11:03:55;85.20;;;35.10;;
20251;SDS011;10284;58.364;15.550;2024-03-02T11:06:21;80.85;;;34.85;;
20251;SDS011;10284;58.364;15.550;2024-03-02T11:08:47;85.63;;;35.30;;
20251;SDS011;10284;58.364;15.550;2024-03-02T11:11:15;79.00;;;34.90;;
20251;SDS011;10284;58.364;15.550;2024-03-02T11:13:42;85.60;;;36.10;;
20251;SDS011;10284;58.364;15.550;2024-03-02T11:16:14;83.80;;;34.75;;
20251;SDS011;10284;58.364;15.550;2024-03-02T11:18:45;88.28;;;35.47;;
20251;SDS011;10284;58.364;15.550;2024-03-02T11:21:11;90.50;;;35.92;;
20251;SDS011;10284;58.364;15.550;2024-03-02T11:23:37;84.20;;;35.08;;
20251;SDS011;10284;58.364;15.550;2024-03-02T11:26:18;92.70;;;35.67;;
20251;SDS011;10284;58.364;15.550;2024-03-02T11:28:47;83.20;;;34.97;;
20251;SDS011;10284;58.364;15.550;2024-03-02T11:31:12;83.15;;;34.75;;
20251;SDS011;10284;58.364;15.550;2024-03-02T11:33:38;88.60;;;36.08;;
20251;SDS011;10284;58.364;15.550;2024-03-02T11:36:03;85.90;;;35.33;;
20251;SDS011;10284;58.364;15.550;2024-03-02T11:38:32;85.50;;;34.15;;
20251;SDS011;10284;58.364;15.550;2024-03-02T11:41:02;82.15;;;35.05;;
20251;SDS011;10284;58.364;15.550;2024-03-02T11:43:28;79.72;;;34.20;;
20251;SDS011;10284;58.364;15.550;2024-03-02T11:46:00;89.53;;;35.72;;
20251;SDS011;10284;58.364;15.550;2024-03-02T11:48:29;85.05;;;35.22;;
20251;SDS011;10284;58.364;15.550;2024-03-02T11:50:54;87.97;;;35.08;;
20251;SDS011;10284;58.364;15.550;2024-03-02T11:53:23;82.28;;;36.05;;
20251;SDS011;10284;58.364;15.550;2024-03-02T11:55:49;81.40;;;35.05;;
20251;SDS011;10284;58.364;15.550;2024-03-02T11:58:15;88.72;;;35.45;;
20251;SDS011;10284;58.364;15.550;2024-03-02T12:00:53;72.25;;;26.05;;
20251;SDS011;10284;58.364;15.550;2024-03-02T12:03:20;90.78;;;36.00;;
20251;SDS011;10284;58.364;15.550;2024-03-02T12:05:52;99.20;;;36.40;;
20251;SDS011;10284;58.364;15.550;2024-03-02T12:08:18;91.47;;;36.35;;
20251;SDS011;10284;58.364;15.550;2024-03-02T12:10:43;92.47;;;36.22;;
20251;SDS011;10284;58.364;15.550;2024-03-02T12:13:25;99.18;;;38.10;;
20251;SDS011;10284;58.364;15.550;2024-03-02T12:15:53;101.30;;;38.88;;
20251;SDS011;10284;58.364;15.550;2024-03-02T12:18:21;101.18;;;38.35;;
20251;SDS011;10284;58.364;15.550;2024-03-02T12:20:46;109.70;;;39.83;;
20251;SDS011;10284;58.364;15.550;2024-03-02T12:23:14;105.43;;;37.17;;
20251;SDS011;10284;58.364;15.550;2024-03-02T12:25:39;97.32;;;37.08;;
20251;SDS011;10284;58.364;15.550;2024-03-02T12:28:05;102.70;;;40.65;;
20251;SDS011;10284;58.364;15.550;2024-03-02T12:30:30;105.63;;;38.60;;
20251;SDS011;10284;58.364;15.550;2024-03-02T12:32:58;105.00;;;38.42;;
20251;SDS011;10284;58.364;15.550;2024-03-02T12:35:24;98.38;;;38.95;;
20251;SDS011;10284;58.364;15.550;2024-03-02T12:37:51;106.05;;;38.03;;
20251;SDS011;10284;58.364;15.550;2024-03-02T12:40:17;98.93;;;38.20;;
20251;SDS011;10284;58.364;15.550;2024-03-02T12:42:44;107.57;;;38.05;;
20251;SDS011;10284;58.364;15.550;2024-03-02T12:45:10;103.80;;;38.42;;
20251;SDS011;10284;58.364;15.550;2024-03-02T12:47:36;102.97;;;38.30;;
20251;SDS011;10284;58.364;15.550;2024-03-02T12:50:02;98.32;;;35.92;;
20251;SDS011;10284;58.364;15.550;2024-03-02T12:52:28;100.03;;;36.15;;
20251;SDS011;10284;58.364;15.550;2024-03-02T12:54:54;103.78;;;38.25;;
20251;SDS011;10284;58.364;15.550;2024-03-02T12:57:26;109.25;;;38.85;;
20251;SDS011;10284;58.364;15.550;2024-03-02T12:59:58;98.38;;;36.67;;
20251;SDS011;10284;58.364;15.550;2024-03-02T13:02:27;94.18;;;37.10;;
20251;SDS011;10284;58.364;15.550;2024-03-02T13:04:53;95.03;;;37.03;;
20251;SDS011;10284;58.364;15.550;2024-03-02T13:07:19;95.63;;;36.58;;
20251;SDS011;10284;58.364;15.550;2024-03-02T13:09:51;103.38;;;36.45;;
20251;SDS011;10284;58.364;15.550;2024-03-02T13:12:20;112.38;;;38.47;;
20251;SDS011;10284;58.364;15.550;2024-03-02T13:14:52;99.55;;;37.70;;
20251;SDS011;10284;58.364;15.550;2024-03-02T13:17:18;93.28;;;35.70;;
20251;SDS011;10284;58.364;15.550;2024-03-02T13:20:02;91.70;;;34.08;;
20251;SDS011;10284;58.364;15.550;2024-03-02T13:22:29;97.90;;;36.47;;
20251;SDS011;10284;58.364;15.550;2024-03-02T13:24:54;93.38;;;35.15;;
20251;SDS011;10284;58.364;15.550;2024-03-02T13:27:20;92.63;;;34.30;;
20251;SDS011;10284;58.364;15.550;2024-03-02T13:29:46;98.35;;;33.97;;
20251;SDS011;10284;58.364;15.550;2024-03-02T13:32:15;90.97;;;35.78;;
20251;SDS011;10284;58.364;15.550;2024-03-02T13:34:41;96.70;;;34.35;;
20251;SDS011;10284;58.364;15.550;2024-03-02T13:37:06;95.88;;;34.45;;
20251;SDS011;10284;58.364;15.550;2024-03-02T13:39:32;92.88;;;33.55;;
20251;SDS011;10284;58.364;15.550;2024-03-02T13:42:00;84.78;;;33.47;;
20251;SDS011;10284;58.364;15.550;2024-03-02T13:44:33;91.72;;;33.92;;
20251;SDS011;10284;58.364;15.550;2024-03-02T13:46:59;85.70;;;33.95;;
20251;SDS011;10284;58.364;15.550;2024-03-02T13:49:25;88.05;;;34.47;;
20251;SDS011;10284;58.364;15.550;2024-03-02T13:51:58;89.53;;;33.75;;
20251;SDS011;10284;58.364;15.550;2024-03-02T13:54:25;87.25;;;33.63;;
20251;SDS011;10284;58.364;15.550;2024-03-02T13:56:51;88.07;;;33.47;;
20251;SDS011;10284;58.364;15.550;2024-03-02T13:59:17;85.97;;;34.40;;
20251;SDS011;10284;58.364;15.550;2024-03-02T14:01:42;86.70;;;33.85;;
20251;SDS011;10284;58.364;15.550;2024-03-02T14:04:08;87.53;;;34.88;;
20251;SDS011;10284;58.364;15.550;2024-03-02T14:06:34;85.65;;;32.55;;
20251;SDS011;10284;58.364;15.550;2024-03-02T14:08:59;91.65;;;33.90;;